sensor_id;sensor_type;location;lat;lon;timestamp;pressure;altitude;pressure_sealevel;temperature;humidity
13407;BME280;6774;48.208;10.766;2023-02-02T00:01:22;96046.41;;;4.34;74.88
13407;BME280;6774;48.208;10.766;2023-02-02T00:03:52;96052.00;;;4.10;74.86
13407;BME280;6774;48.208;10.766;2023-02-02T00:06:24;96045.31;;;4.26;74.81
13407;BME280;6774;48.208;10.766;2023-02-02T00:08:54;96049.38;;;4.00;76.57
13407;BME280;6774;48.208;10.766;2023-02-02T00:11:23;96043.88;;;3.93;76.25
13407;BME280;6774;48.208;10.766;2023-02-02T00:13:51;96056.25;;;4.11;76.15
13407;BME280;6774;48.208;10.766;2023-02-02T00:16:37;96037.06;;;4.21;75.42
13407;BME280;6774;48.208;10.766;2023-02-02T00:19:08;96036.78;;;4.24;75.23
13407;BME280;6774;48.208;10.766;2023-02-02T00:21:36;96050.84;;;3.93;76.39
13407;BME280;6774;48.208;10.766;2023-02-02T00:24:05;96025.91;;;4.29;75.89
13407;BME280;6774;48.208;10.766;2023-02-02T00:26:34;96038.97;;;4.19;75.21
13407;BME280;6774;48.208;10.766;2023-02-02T00:29:03;96039.13;;;4.27;75.13
13407;BME280;6774;48.208;10.766;2023-02-02T00:31:31;96051.50;;;4.25;75.44
13407;BME280;6774;48.208;10.766;2023-02-02T00:33:59;96047.09;;;4.26;76.07
13407;BME280;6774;48.208;10.766;2023-02-02T00:36:28;96048.56;;;4.09;76.14
13407;BME280;6774;48.208;10.766;2023-02-02T00:38:56;96049.16;;;4.13;76.28
13407;BME280;6774;48.208;10.766;2023-02-02T00:41:24;96047.22;;;4.24;76.38
13407;BME280;6774;48.208;10.766;2023-02-02T00:43:52;96037.31;;;4.09;76.41
13407;BME280;6774;48.208;10.766;2023-02-02T00:46:34;96043.94;;;4.22;76.34
13407;BME280;6774;48.208;10.766;2023-02-02T00:49:05;96048.34;;;4.22;76.23
13407;BME280;6774;48.208;10.766;2023-02-02T00:51:34;96037.59;;;4.15;76.00
13407;BME280;6774;48.208;10.766;2023-02-02T00:54:04;96041.19;;;4.34;75.75
13407;BME280;6774;48.208;10.766;2023-02-02T00:56:32;96034.56;;;4.29;75.92
13407;BME280;6774;48.208;10.766;2023-02-02T00:59:00;96017.81;;;4.22;76.54
13407;BME280;6774;48.208;10.766;2023-02-02T01:01:27;96022.75;;;4.16;76.42
13407;BME280;6774;48.208;10.766;2023-02-02T01:03:55;96044.47;;;4.16;77.06
13407;BME280;6774;48.208;10.766;2023-02-02T01:06:23;96054.22;;;4.14;76.73
13407;BME280;6774;48.208;10.766;2023-02-02T01:08:52;96044.03;;;4.11;77.06
13407;BME280;6774;48.208;10.766;2023-02-02T01:11:20;96054.91;;;4.16;76.85
13407;BME280;6774;48.208;10.766;2023-02-02T01:13:49;96040.69;;;3.90;77.05
13407;BME280;6774;48.208;10.766;2023-02-02T01:16:17;96046.91;;;4.08;76.94
13407;BME280;6774;48.208;10.766;2023-02-02T01:18:48;96055.72;;;4.07;77.74
13407;BME280;6774;48.208;10.766;2023-02-02T01:21:17;96041.03;;;4.16;77.33
13407;BME280;6774;48.208;10.766;2023-02-02T01:23:45;96034.00;;;4.07;77.66
13407;BME280;6774;48.208;10.766;2023-02-02T01:26:15;96035.91;;;3.95;78.56
13407;BME280;6774;48.208;10.766;2023-02-02T01:28:44;96042.81;;;4.06;77.92
13407;BME280;6774;48.208;10.766;2023-02-02T01:31:13;96046.91;;;4.08;77.97
13407;BME280;6774;48.208;10.766;2023-02-02T01:33:42;96051.63;;;4.24;77.32
13407;BME280;6774;48.208;10.766;2023-02-02T01:36:11;96054.38;;;4.13;77.79
13407;BME280;6774;48.208;10.766;2023-02-02T01:38:40;96054.38;;;4.22;76.80
13407;BME280;6774;48.208;10.766;2023-02-02T01:41:11;96048.34;;;4.32;76.90
13407;BME280;6774;48.208;10.766;2023-02-02T01:43:52;96062.56;;;3.98;78.90
13407;BME280;6774;48.208;10.766;2023-02-02T01:46:23;96054.09;;;4.25;77.66
13407;BME280;6774;48.208;10.766;2023-02-02T01:48:57;96035.66;;;4.17;77.40
13407;BME280;6774;48.208;10.766;2023-02-02T01:51:31;96041.41;;;4.11;77.73
13407;BME280;6774;48.208;10.766;2023-02-02T01:54:01;96047.75;;;4.18;77.64
13407;BME280;6774;48.208;10.766;2023-02-02T01:56:33;96073.34;;;4.15;78.07
13407;BME280;6774;48.208;10.766;2023-02-02T01:59:06;96048.59;;;4.28;77.79
13407;BME280;6774;48.208;10.766;2023-02-02T02:01:34;96049.84;;;4.15;78.32
13407;BME280;6774;48.208;10.766;2023-02-02T02:04:02;96045.72;;;4.12;78.12
13407;BME280;6774;48.208;10.766;2023-02-02T02:06:30;96063.09;;;3.92;78.49
13407;BME280;6774;48.208;10.766;2023-02-02T02:09:02;96040.88;;;4.17;78.19
13407;BME280;6774;48.208;10.766;2023-02-02T02:11:31;96049.31;;;4.21;77.80
13407;BME280;6774;48.208;10.766;2023-02-02T02:14:02;96031.78;;;4.02;78.19
13407;BME280;6774;48.208;10.766;2023-02-02T02:17:10;96049.25;;;4.11;78.08
13407;BME280;6774;48.208;10.766;2023-02-02T02:20:07;96047.19;;;3.95;78.36
13407;BME280;6774;48.208;10.766;2023-02-02T02:23:28;96033.47;;;4.03;78.61
13407;BME280;6774;48.208;10.766;2023-02-02T02:26:33;96022.59;;;4.17;78.19
13407;BME280;6774;48.208;10.766;2023-02-02T02:29:42;96048.03;;;4.15;78.44
13407;BME280;6774;48.208;10.766;2023-02-02T02:32:26;96038.38;;;3.96;78.68
13407;BME280;6774;48.208;10.766;2023-02-02T02:35:03;96044.47;;;4.16;78.63
13407;BME280;6774;48.208;10.766;2023-02-02T02:37:38;96051.34;;;4.17;78.31
13407;BME280;6774;48.208;10.766;2023-02-02T02:40:14;96029.59;;;4.07;78.35
13407;BME280;6774;48.208;10.766;2023-02-02T02:42:50;96035.50;;;3.99;78.70
13407;BME280;6774;48.208;10.766;2023-02-02T02:45:20;96001.81;;;3.87;79.46
13407;BME280;6774;48.208;10.766;2023-02-02T02:47:50;96026.94;;;3.88;79.47
13407;BME280;6774;48.208;10.766;2023-02-02T02:50:20;96029.03;;;3.94;79.45
13407;BME280;6774;48.208;10.766;2023-02-02T02:53:02;96035.59;;;3.79;80.17
13407;BME280;6774;48.208;10.766;2023-02-02T02:55:39;96033.81;;;3.89;79.88
13407;BME280;6774;48.208;10.766;2023-02-02T02:58:12;96032.19;;;3.97;79.22
13407;BME280;6774;48.208;10.766;2023-02-02T03:00:55;96020.78;;;3.89;79.84
13407;BME280;6774;48.208;10.766;2023-02-02T03:03:41;96024.03;;;3.81;79.07
13407;BME280;6774;48.208;10.766;2023-02-02T03:06:18;96037.91;;;3.82;79.71
13407;BME280;6774;48.208;10.766;2023-02-02T03:08:52;96026.31;;;3.65;80.71
13407;BME280;6774;48.208;10.766;2023-02-02T03:11:21;96025.44;;;3.85;80.55
13407;BME280;6774;48.208;10.766;2023-02-02T03:13:50;96003.41;;;3.68;80.88
13407;BME280;6774;48.208;10.766;2023-02-02T03:16:17;96011.97;;;3.90;80.40
13407;BME280;6774;48.208;10.766;2023-02-02T03:18:46;96003.47;;;3.88;80.20
13407;BME280;6774;48.208;10.766;2023-02-02T03:21:14;95997.28;;;3.89;80.61
13407;BME280;6774;48.208;10.766;2023-02-02T03:23:42;96023.75;;;3.75;81.20
13407;BME280;6774;48.208;10.766;2023-02-02T03:26:10;96015.44;;;4.00;80.14
13407;BME280;6774;48.208;10.766;2023-02-02T03:28:39;95998.22;;;3.78;80.76
13407;BME280;6774;48.208;10.766;2023-02-02T03:31:07;96006.38;;;3.54;81.48
13407;BME280;6774;48.208;10.766;2023-02-02T03:33:36;96025.72;;;3.92;80.27
13407;BME280;6774;48.208;10.766;2023-02-02T03:36:06;95997.41;;;3.78;80.36
13407;BME280;6774;48.208;10.766;2023-02-02T03:38:34;96007.59;;;4.00;80.31
13407;BME280;6774;48.208;10.766;2023-02-02T03:41:03;95991.56;;;3.64;81.14
13407;BME280;6774;48.208;10.766;2023-02-02T03:43:31;95991.69;;;3.53;81.49
13407;BME280;6774;48.208;10.766;2023-02-02T03:46:01;95996.00;;;3.83;80.95
13407;BME280;6774;48.208;10.766;2023-02-02T03:48:30;95986.66;;;3.71;81.20
13407;BME280;6774;48.208;10.766;2023-02-02T03:50:58;96004.25;;;3.79;81.64
13407;BME280;6774;48.208;10.766;2023-02-02T03:53:28;96016.28;;;3.60;81.69
13407;BME280;6774;48.208;10.766;2023-02-02T03:55:55;95990.09;;;3.71;81.41
13407;BME280;6774;48.208;10.766;2023-02-02T03:58:23;95988.09;;;3.94;80.79
13407;BME280;6774;48.208;10.766;2023-02-02T04:00:50;95991.31;;;3.67;81.13
13407;BME280;6774;48.208;10.766;2023-02-02T04:03:20;96003.97;;;3.72;80.90
13407;BME280;6774;48.208;10.766;2023-02-02T04:05:48;95989.34;;;3.50;81.90
13407;BME280;6774;48.208;10.766;2023-02-02T04:08:16;96020.22;;;3.85;80.99
13407;BME280;6774;48.208;10.766;2023-02-02T04:10:45;96014.00;;;3.77;81.21
13407;BME280;6774;48.208;10.766;2023-02-02T04:13:13;95996.72;;;3.76;81.59
13407;BME280;6774;48.208;10.766;2023-02-02T04:15:41;96002.84;;;3.75;81.79
13407;BME280;6774;48.208;10.766;2023-02-02T04:18:08;96023.22;;;3.81;82.05
13407;BME280;6774;48.208;10.766;2023-02-02T04:20:36;96022.81;;;3.76;81.88
13407;BME280;6774;48.208;10.766;2023-02-02T04:23:04;95997.06;;;3.61;82.25
13407;BME280;6774;48.208;10.766;2023-02-02T04:25:32;95985.78;;;3.51;82.22
13407;BME280;6774;48.208;10.766;2023-02-02T04:28:01;96025.41;;;3.76;82.01
13407;BME280;6774;48.208;10.766;2023-02-02T04:30:29;96018.59;;;3.94;81.51
13407;BME280;6774;48.208;10.766;2023-02-02T04:32:57;96018.56;;;3.84;80.84
13407;BME280;6774;48.208;10.766;2023-02-02T04:35:25;96031.50;;;3.86;81.34
13407;BME280;6774;48.208;10.766;2023-02-02T04:37:54;96030.41;;;3.98;80.36
13407;BME280;6774;48.208;10.766;2023-02-02T04:40:21;96024.63;;;3.85;81.02
13407;BME280;6774;48.208;10.766;2023-02-02T04:42:49;96024.88;;;3.82;81.86
13407;BME280;6774;48.208;10.766;2023-02-02T04:45:18;96027.22;;;3.85;81.85
13407;BME280;6774;48.208;10.766;2023-02-02T04:47:47;96042.13;;;3.63;83.46
13407;BME280;6774;48.208;10.766;2023-02-02T04:50:15;96040.53;;;3.82;83.01
13407;BME280;6774;48.208;10.766;2023-02-02T04:52:43;96047.16;;;3.86;82.84
13407;BME280;6774;48.208;10.766;2023-02-02T04:55:11;96047.13;;;3.76;83.07
13407;BME280;6774;48.208;10.766;2023-02-02T04:57:39;96045.75;;;3.82;82.61
13407;BME280;6774;48.208;10.766;2023-02-02T05:00:07;96059.41;;;3.95;81.85
13407;BME280;6774;48.208;10.766;2023-02-02T05:02:40;96036.97;;;3.92;81.55
13407;BME280;6774;48.208;10.766;2023-02-02T05:05:10;96044.97;;;4.00;81.51
13407;BME280;6774;48.208;10.766;2023-02-02T05:07:39;96076.59;;;3.97;81.10
13407;BME280;6774;48.208;10.766;2023-02-02T05:10:08;96045.84;;;3.70;81.64
13407;BME280;6774;48.208;10.766;2023-02-02T05:12:37;96050.16;;;3.91;81.95
13407;BME280;6774;48.208;10.766;2023-02-02T05:15:06;96047.16;;;3.86;81.54
13407;BME280;6774;48.208;10.766;2023-02-02T05:17:34;96049.84;;;4.15;80.63
13407;BME280;6774;48.208;10.766;2023-02-02T05:20:03;96056.84;;;4.14;79.91
13407;BME280;6774;48.208;10.766;2023-02-02T05:22:31;96069.31;;;4.11;80.49
13407;BME280;6774;48.208;10.766;2023-02-02T05:25:00;96057.97;;;4.21;79.13
13407;BME280;6774;48.208;10.766;2023-02-02T05:27:28;96066.16;;;4.07;79.84
13407;BME280;6774;48.208;10.766;2023-02-02T05:29:56;96034.94;;;3.86;80.47
13407;BME280;6774;48.208;10.766;2023-02-02T05:32:24;96066.84;;;4.09;79.82
13407;BME280;6774;48.208;10.766;2023-02-02T05:34:53;96079.94;;;4.28;79.31
13407;BME280;6774;48.208;10.766;2023-02-02T05:37:22;96072.81;;;4.21;79.61
13407;BME280;6774;48.208;10.766;2023-02-02T05:39:50;96076.09;;;4.13;80.43
13407;BME280;6774;48.208;10.766;2023-02-02T05:42:19;96084.72;;;3.74;81.64
13407;BME280;6774;48.208;10.766;2023-02-02T05:44:47;96071.63;;;3.85;81.71
13407;BME280;6774;48.208;10.766;2023-02-02T05:47:15;96077.13;;;4.01;81.31
13407;BME280;6774;48.208;10.766;2023-02-02T05:49:42;96071.84;;;4.22;80.65
13407;BME280;6774;48.208;10.766;2023-02-02T05:52:14;96073.75;;;4.20;80.39
13407;BME280;6774;48.208;10.766;2023-02-02T05:54:45;96082.13;;;4.04;81.34
13407;BME280;6774;48.208;10.766;2023-02-02T05:57:14;96087.34;;;3.74;82.61
13407;BME280;6774;48.208;10.766;2023-02-02T05:59:42;96100.94;;;3.67;83.31
13407;BME280;6774;48.208;10.766;2023-02-02T06:02:10;96098.81;;;3.92;82.23
13407;BME280;6774;48.208;10.766;2023-02-02T06:04:38;96090.41;;;3.79;81.96
13407;BME280;6774;48.208;10.766;2023-02-02T06:07:06;96106.66;;;3.61;82.70
13407;BME280;6774;48.208;10.766;2023-02-02T06:09:34;96102.31;;;3.71;82.91
13407;BME280;6774;48.208;10.766;2023-02-02T06:12:04;96092.72;;;4.12;81.43
13407;BME280;6774;48.208;10.766;2023-02-02T06:14:32;96113.97;;;3.98;81.38
13407;BME280;6774;48.208;10.766;2023-02-02T06:17:00;96101.59;;;4.00;81.13
13407;BME280;6774;48.208;10.766;2023-02-02T06:19:28;96110.91;;;3.93;81.54
13407;BME280;6774;48.208;10.766;2023-02-02T06:21:56;96112.91;;;4.10;81.11
13407;BME280;6774;48.208;10.766;2023-02-02T06:24:24;96126.19;;;3.97;80.96
13407;BME280;6774;48.208;10.766;2023-02-02T06:26:52;96112.03;;;4.00;81.53
13407;BME280;6774;48.208;10.766;2023-02-02T06:29:21;96111.91;;;4.42;80.12
13407;BME280;6774;48.208;10.766;2023-02-02T06:31:49;96112.91;;;4.10;80.49
13407;BME280;6774;48.208;10.766;2023-02-02T06:34:17;96113.53;;;4.33;80.02
13407;BME280;6774;48.208;10.766;2023-02-02T06:36:44;96125.44;;;4.16;80.49
13407;BME280;6774;48.208;10.766;2023-02-02T06:39:12;96123.91;;;4.04;81.17
13407;BME280;6774;48.208;10.766;2023-02-02T06:41:40;96130.69;;;3.86;81.18
13407;BME280;6774;48.208;10.766;2023-02-02T06:44:11;96119.13;;;3.79;82.29
13407;BME280;6774;48.208;10.766;2023-02-02T06:46:41;96116.75;;;4.06;81.72
13407;BME280;6774;48.208;10.766;2023-02-02T06:49:09;96128.28;;;3.73;82.15
13407;BME280;6774;48.208;10.766;2023-02-02T06:51:37;96137.03;;;3.62;82.49
13407;BME280;6774;48.208;10.766;2023-02-02T06:54:05;96137.94;;;4.13;81.23
13407;BME280;6774;48.208;10.766;2023-02-02T06:56:33;96133.63;;;3.71;82.53
13407;BME280;6774;48.208;10.766;2023-02-02T06:59:01;96130.22;;;4.11;81.99
13407;BME280;6774;48.208;10.766;2023-02-02T07:01:29;96129.78;;;3.66;82.76
13407;BME280;6774;48.208;10.766;2023-02-02T07:03:59;96144.50;;;4.07;82.13
13407;BME280;6774;48.208;10.766;2023-02-02T07:06:28;96141.66;;;3.80;82.32
13407;BME280;6774;48.208;10.766;2023-02-02T07:08:56;96132.59;;;3.84;83.04
13407;BME280;6774;48.208;10.766;2023-02-02T07:11:29;96142.50;;;3.90;82.76
13407;BME280;6774;48.208;10.766;2023-02-02T07:14:00;96145.59;;;4.05;82.26
13407;BME280;6774;48.208;10.766;2023-02-02T07:16:28;96145.78;;;4.13;81.52
13407;BME280;6774;48.208;10.766;2023-02-02T07:18:56;96134.66;;;4.20;81.45
13407;BME280;6774;48.208;10.766;2023-02-02T07:21:26;96130.22;;;4.11;81.71
13407;BME280;6774;48.208;10.766;2023-02-02T07:23:56;96153.88;;;4.19;81.94
13407;BME280;6774;48.208;10.766;2023-02-02T07:26:24;96152.63;;;4.04;82.43
13407;BME280;6774;48.208;10.766;2023-02-02T07:28:53;96133.72;;;3.91;82.98
13407;BME280;6774;48.208;10.766;2023-02-02T07:31:23;96143.94;;;3.94;82.98
13407;BME280;6774;48.208;10.766;2023-02-02T07:33:52;96147.03;;;4.28;82.17
13407;BME280;6774;48.208;10.766;2023-02-02T07:36:22;96141.03;;;3.66;83.49
13407;BME280;6774;48.208;10.766;2023-02-02T07:38:52;96140.22;;;3.96;83.09
13407;BME280;6774;48.208;10.766;2023-02-02T07:41:21;96125.47;;;3.86;84.10
13407;BME280;6774;48.208;10.766;2023-02-02T07:43:50;96161.47;;;3.92;84.60
13407;BME280;6774;48.208;10.766;2023-02-02T07:46:18;96154.97;;;3.77;86.12
13407;BME280;6774;48.208;10.766;2023-02-02T07:48:47;96146.81;;;3.70;86.51
13407;BME280;6774;48.208;10.766;2023-02-02T07:51:16;96157.81;;;3.74;86.49
13407;BME280;6774;48.208;10.766;2023-02-02T07:53:46;96153.31;;;4.06;85.32
13407;BME280;6774;48.208;10.766;2023-02-02T07:56:18;96142.81;;;3.96;86.51
13407;BME280;6774;48.208;10.766;2023-02-02T07:58:46;96158.03;;;3.91;86.18
13407;BME280;6774;48.208;10.766;2023-02-02T08:01:14;96166.41;;;3.85;86.71
13407;BME280;6774;48.208;10.766;2023-02-02T08:03:43;96164.25;;;3.69;87.97
13407;BME280;6774;48.208;10.766;2023-02-02T08:06:13;96152.69;;;3.93;87.79
13407;BME280;6774;48.208;10.766;2023-02-02T08:08:41;96163.22;;;3.82;88.55
13407;BME280;6774;48.208;10.766;2023-02-02T08:11:10;96166.38;;;3.76;87.72
13407;BME280;6774;48.208;10.766;2023-02-02T08:13:40;96166.19;;;3.47;89.10
13407;BME280;6774;48.208;10.766;2023-02-02T08:16:10;96149.38;;;3.60;89.87
13407;BME280;6774;48.208;10.766;2023-02-02T08:18:38;96157.59;;;3.56;91.13
13407;BME280;6774;48.208;10.766;2023-02-02T08:21:06;96140.41;;;3.53;92.09
13407;BME280;6774;48.208;10.766;2023-02-02T08:23:35;96161.34;;;3.42;91.82
13407;BME280;6774;48.208;10.766;2023-02-02T08:26:08;96178.28;;;3.68;91.02
13407;BME280;6774;48.208;10.766;2023-02-02T08:28:37;96162.69;;;3.57;92.06
13407;BME280;6774;48.208;10.766;2023-02-02T08:31:10;96183.53;;;3.36;93.35
13407;BME280;6774;48.208;10.766;2023-02-02T08:33:37;96176.09;;;3.74;92.62
13407;BME280;6774;48.208;10.766;2023-02-02T08:36:08;96169.22;;;3.93;91.96
13407;BME280;6774;48.208;10.766;2023-02-02T08:38:37;96180.00;;;3.58;91.61
13407;BME280;6774;48.208;10.766;2023-02-02T08:41:07;96165.63;;;3.43;93.74
13407;BME280;6774;48.208;10.766;2023-02-02T08:43:35;96171.59;;;3.76;93.13
13407;BME280;6774;48.208;10.766;2023-02-02T08:46:03;96157.72;;;3.54;92.08
13407;BME280;6774;48.208;10.766;2023-02-02T08:48:34;96165.63;;;3.43;92.84
13407;BME280;6774;48.208;10.766;2023-02-02T08:51:03;96184.50;;;3.56;92.72
13407;BME280;6774;48.208;10.766;2023-02-02T08:53:31;96189.47;;;3.59;93.36
13407;BME280;6774;48.208;10.766;2023-02-02T08:56:01;96225.81;;;3.51;92.91
13407;BME280;6774;48.208;10.766;2023-02-02T08:58:30;96185.84;;;3.71;92.04
13407;BME280;6774;48.208;10.766;2023-02-02T09:01:03;96184.88;;;3.93;91.89
13407;BME280;6774;48.208;10.766;2023-02-02T09:03:32;96189.13;;;3.74;92.58
13407;BME280;6774;48.208;10.766;2023-02-02T09:06:04;96201.50;;;3.71;92.72
13407;BME280;6774;48.208;10.766;2023-02-02T09:08:33;96206.28;;;3.87;91.79
13407;BME280;6774;48.208;10.766;2023-02-02T09:11:05;96230.56;;;4.09;92.21
13407;BME280;6774;48.208;10.766;2023-02-02T09:13:34;96218.09;;;3.91;91.99
13407;BME280;6774;48.208;10.766;2023-02-02T09:16:03;96222.25;;;3.94;92.57
13407;BME280;6774;48.208;10.766;2023-02-02T09:18:31;96215.44;;;3.82;90.75
13407;BME280;6774;48.208;10.766;2023-02-02T09:21:00;96217.44;;;4.29;90.83
13407;BME280;6774;48.208;10.766;2023-02-02T09:23:30;96227.06;;;4.29;90.83
13407;BME280;6774;48.208;10.766;2023-02-02T09:26:08;96251.00;;;4.24;89.90
13407;BME280;6774;48.208;10.766;2023-02-02T09:28:37;96233.06;;;3.89;91.48
13407;BME280;6774;48.208;10.766;2023-02-02T09:31:05;96224.78;;;3.63;92.84
13407;BME280;6774;48.208;10.766;2023-02-02T09:33:33;96227.63;;;4.23;92.07
13407;BME280;6774;48.208;10.766;2023-02-02T09:36:06;96237.19;;;4.13;90.66
13407;BME280;6774;48.208;10.766;2023-02-02T09:38:35;96209.00;;;3.86;90.95
13407;BME280;6774;48.208;10.766;2023-02-02T09:41:23;96226.78;;;4.22;90.49
13407;BME280;6774;48.208;10.766;2023-02-02T09:44:02;96225.09;;;4.12;90.80
13407;BME280;6774;48.208;10.766;2023-02-02T09:46:43;96228.16;;;4.26;89.22
13407;BME280;6774;48.208;10.766;2023-02-02T09:49:18;96218.00;;;4.23;89.68
13407;BME280;6774;48.208;10.766;2023-02-02T09:51:53;96216.66;;;4.39;89.43
13407;BME280;6774;48.208;10.766;2023-02-02T09:54:27;96234.34;;;4.25;89.34
13407;BME280;6774;48.208;10.766;2023-02-02T09:57:02;96231.50;;;4.38;88.76
13407;BME280;6774;48.208;10.766;2023-02-02T09:59:33;96231.72;;;4.56;88.63
13407;BME280;6774;48.208;10.766;2023-02-02T10:02:09;96235.59;;;4.21;89.27
13407;BME280;6774;48.208;10.766;2023-02-02T10:04:41;96249.72;;;4.49;88.70
13407;BME280;6774;48.208;10.766;2023-02-02T10:07:14;96230.59;;;4.18;89.97
13407;BME280;6774;48.208;10.766;2023-02-02T10:09:48;96238.72;;;4.15;90.40
13407;BME280;6774;48.208;10.766;2023-02-02T10:12:28;96224.50;;;4.08;89.61
13407;BME280;6774;48.208;10.766;2023-02-02T10:15:01;96254.56;;;4.23;90.34
13407;BME280;6774;48.208;10.766;2023-02-02T10:17:37;96249.59;;;4.51;88.94
13407;BME280;6774;48.208;10.766;2023-02-02T10:20:18;96246.19;;;4.60;88.20
13407;BME280;6774;48.208;10.766;2023-02-02T10:22:48;96260.03;;;4.51;87.43
13407;BME280;6774;48.208;10.766;2023-02-02T10:25:20;96259.84;;;4.73;86.93
13407;BME280;6774;48.208;10.766;2023-02-02T10:27:55;96259.25;;;4.60;86.78
13407;BME280;6774;48.208;10.766;2023-02-02T10:30:36;96242.06;;;4.57;87.14
13407;BME280;6774;48.208;10.766;2023-02-02T10:33:14;96251.66;;;4.57;87.32
13407;BME280;6774;48.208;10.766;2023-02-02T10:35:53;96266.06;;;4.82;86.91
13407;BME280;6774;48.208;10.766;2023-02-02T10:38:30;96239.09;;;4.81;87.00
13407;BME280;6774;48.208;10.766;2023-02-02T10:41:12;96246.94;;;4.91;87.01
13407;BME280;6774;48.208;10.766;2023-02-02T10:43:59;96251.78;;;4.96;86.92
13407;BME280;6774;48.208;10.766;2023-02-02T10:46:32;96237.41;;;4.71;86.78
13407;BME280;6774;48.208;10.766;2023-02-02T10:49:15;96242.69;;;5.00;86.77
13407;BME280;6774;48.208;10.766;2023-02-02T10:51:50;96235.25;;;4.85;86.00
13407;BME280;6774;48.208;10.766;2023-02-02T10:54:51;96240.88;;;4.91;86.09
13407;BME280;6774;48.208;10.766;2023-02-02T10:57:43;96233.63;;;4.54;87.01
13407;BME280;6774;48.208;10.766;2023-02-02T11:00:21;96228.66;;;4.91;85.95
13407;BME280;6774;48.208;10.766;2023-02-02T11:02:50;96231.81;;;4.85;86.07
13407;BME280;6774;48.208;10.766;2023-02-02T11:05:21;96256.69;;;4.79;86.48
13407;BME280;6774;48.208;10.766;2023-02-02T11:08:12;96237.44;;;4.90;85.32
13407;BME280;6774;48.208;10.766;2023-02-02T11:10:42;96246.53;;;4.76;86.01
13407;BME280;6774;48.208;10.766;2023-02-02T11:13:16;96228.41;;;4.54;88.43
13407;BME280;6774;48.208;10.766;2023-02-02T11:15:45;96227.22;;;4.68;88.29
13407;BME280;6774;48.208;10.766;2023-02-02T11:18:24;96222.78;;;4.49;90.07
13407;BME280;6774;48.208;10.766;2023-02-02T11:20:54;96255.25;;;4.66;90.58
13407;BME280;6774;48.208;10.766;2023-02-02T11:23:25;96233.13;;;4.60;89.62
13407;BME280;6774;48.208;10.766;2023-02-02T11:25:59;96227.81;;;4.91;89.03
13407;BME280;6774;48.208;10.766;2023-02-02T11:28:32;96223.03;;;4.96;87.57
13407;BME280;6774;48.208;10.766;2023-02-02T11:31:01;96247.88;;;4.80;87.83
13407;BME280;6774;48.208;10.766;2023-02-02T11:33:31;96252.28;;;4.70;88.59
13407;BME280;6774;48.208;10.766;2023-02-02T11:36:01;96265.38;;;4.40;90.42
13407;BME280;6774;48.208;10.766;2023-02-02T11:38:30;96237.09;;;4.64;90.42
13407;BME280;6774;48.208;10.766;2023-02-02T11:40:59;96227.59;;;4.53;90.86
13407;BME280;6774;48.208;10.766;2023-02-02T11:43:32;96239.81;;;4.53;89.95
13407;BME280;6774;48.208;10.766;2023-02-02T11:46:16;96241.16;;;4.88;89.98
13407;BME280;6774;48.208;10.766;2023-02-02T11:48:48;96253.59;;;5.05;89.86
13407;BME280;6774;48.208;10.766;2023-02-02T11:51:21;96265.97;;;4.53;89.88
13407;BME280;6774;48.208;10.766;2023-02-02T11:54:00;96259.19;;;4.91;89.68
13407;BME280;6774;48.208;10.766;2023-02-02T11:56:29;96266.72;;;4.74;89.19
13407;BME280;6774;48.208;10.766;2023-02-02T11:58:58;96249.84;;;4.48;91.68
13407;BME280;6774;48.208;10.766;2023-02-02T12:01:32;96245.97;;;4.42;90.72
13407;BME280;6774;48.208;10.766;2023-02-02T12:04:01;96251.59;;;4.38;92.15
13407;BME280;6774;48.208;10.766;2023-02-02T12:06:33;96244.16;;;4.73;92.32
13407;BME280;6774;48.208;10.766;2023-02-02T12:09:10;96242.47;;;4.63;91.63
13407;BME280;6774;48.208;10.766;2023-02-02T12:11:48;96243.75;;;4.68;90.82
13407;BME280;6774;48.208;10.766;2023-02-02T12:14:30;96275.16;;;4.88;90.67
13407;BME280;6774;48.208;10.766;2023-02-02T12:17:10;96232.06;;;4.32;92.53
13407;BME280;6774;48.208;10.766;2023-02-02T12:19:53;96241.56;;;4.83;91.72
13407;BME280;6774;48.208;10.766;2023-02-02T12:22:32;96228.88;;;4.69;90.97
13407;BME280;6774;48.208;10.766;2023-02-02T12:25:14;96231.91;;;4.74;91.39
13407;BME280;6774;48.208;10.766;2023-02-02T12:27:54;96233.75;;;4.43;92.48
13407;BME280;6774;48.208;10.766;2023-02-02T12:30:33;96244.13;;;4.64;93.04
13407;BME280;6774;48.208;10.766;2023-02-02T12:33:15;96255.03;;;4.69;91.93
13407;BME280;6774;48.208;10.766;2023-02-02T12:36:00;96237.28;;;4.72;93.04
13407;BME280;6774;48.208;10.766;2023-02-02T12:38:50;96246.94;;;4.81;92.58
13407;BME280;6774;48.208;10.766;2023-02-02T12:41:32;96229.59;;;4.80;92.13
13407;BME280;6774;48.208;10.766;2023-02-02T12:44:08;96227.78;;;4.71;92.58
13407;BME280;6774;48.208;10.766;2023-02-02T12:46:54;96231.88;;;4.64;92.95
13407;BME280;6774;48.208;10.766;2023-02-02T12:50:03;96237.13;;;4.74;91.91
13407;BME280;6774;48.208;10.766;2023-02-02T12:52:48;96241.41;;;4.35;93.07
13407;BME280;6774;48.208;10.766;2023-02-02T12:55:24;96253.91;;;4.71;92.11
13407;BME280;6774;48.208;10.766;2023-02-02T12:58:03;96255.06;;;4.78;91.27
13407;BME280;6774;48.208;10.766;2023-02-02T13:00:47;96253.06;;;4.61;91.94
13407;BME280;6774;48.208;10.766;2023-02-02T13:03:27;96253.78;;;4.73;91.61
13407;BME280;6774;48.208;10.766;2023-02-02T13:06:20;96232.44;;;4.58;92.26
13407;BME280;6774;48.208;10.766;2023-02-02T13:08:56;96219.84;;;4.42;92.74
13407;BME280;6774;48.208;10.766;2023-02-02T13:11:34;96225.22;;;4.41;92.87
13407;BME280;6774;48.208;10.766;2023-02-02T13:14:07;96239.00;;;4.52;92.54
13407;BME280;6774;48.208;10.766;2023-02-02T13:16:38;96248.69;;;4.71;92.22
13407;BME280;6774;48.208;10.766;2023-02-02T13:19:13;96246.19;;;4.60;92.13
13407;BME280;6774;48.208;10.766;2023-02-02T13:21:44;96263.84;;;4.77;91.75
13407;BME280;6774;48.208;10.766;2023-02-02T13:24:25;96261.69;;;4.52;91.17
13407;BME280;6774;48.208;10.766;2023-02-02T13:26:56;96246.03;;;4.52;92.18
13407;BME280;6774;48.208;10.766;2023-02-02T13:29:32;96261.88;;;4.60;93.29
13407;BME280;6774;48.208;10.766;2023-02-02T13:32:17;96266.59;;;4.76;92.46
13407;BME280;6774;48.208;10.766;2023-02-02T13:34:52;96264.81;;;4.46;92.16
13407;BME280;6774;48.208;10.766;2023-02-02T13:37:27;96261.00;;;4.50;92.16